sensor_id;sensor_type;location;lat;lon;timestamp;P1;durP1;ratioP1;P2;durP2;ratioP2
41943;SDS011;27636;52.610;13.244;2022-11-20T00:01:48;17.63;;;8.13;;
41943;SDS011;27636;52.610;13.244;2022-11-20T00:06:53;14.75;;;6.57;;
41943;SDS011;27636;52.610;13.244;2022-11-20T00:11:56;21.10;;;6.87;;
41943;SDS011;27636;52.610;13.244;2022-11-20T00:16:59;13.98;;;6.97;;
41943;SDS011;27636;52.610;13.244;2022-11-20T00:22:03;14.23;;;7.40;;
41943;SDS011;27636;52.610;13.244;2022-11-20T00:27:06;15.70;;;6.90;;
41943;SDS011;27636;52.610;13.244;2022-11-20T00:32:09;16.80;;;6.00;;
41943;SDS011;27636;52.610;13.244;2022-11-20T00:37:14;12.07;;;6.32;;
41943;SDS011;27636;52.610;13.244;2022-11-20T00:42:17;17.13;;;7.57;;
41943;SDS011;27636;52.610;13.244;2022-11-20T00:47:20;17.15;;;6.32;;
41943;SDS011;27636;52.610;13.244;2022-11-20T00:52:25;18.95;;;6.22;;
41943;SDS011;27636;52.610;13.244;2022-11-20T00:57:28;13.95;;;7.78;;
41943;SDS011;27636;52.610;13.244;2022-11-20T01:02:31;12.43;;;6.57;;
41943;SDS011;27636;52.610;13.244;2022-11-20T01:07:36;14.77;;;6.93;;
41943;SDS011;27636;52.610;13.244;2022-11-20T01:12:39;16.40;;;5.80;;
41943;SDS011;27636;52.610;13.244;2022-11-20T01:17:42;13.50;;;5.05;;
41943;SDS011;27636;52.610;13.244;2022-11-20T01:22:47;13.57;;;6.80;;
41943;SDS011;27636;52.610;13.244;2022-11-20T01:27:50;13.37;;;6.90;;
41943;SDS011;27636;52.610;13.244;2022-11-20T01:32:54;11.82;;;5.35;;
41943;SDS011;27636;52.610;13.244;2022-11-20T01:37:59;18.65;;;8.32;;
41943;SDS011;27636;52.610;13.244;2022-11-20T01:43:06;24.63;;;7.67;;
41943;SDS011;27636;52.610;13.244;2022-11-20T01:48:26;15.63;;;7.15;;
41943;SDS011;27636;52.610;13.244;2022-11-20T01:53:34;15.90;;;7.22;;
41943;SDS011;27636;52.610;13.244;2022-11-20T01:58:41;12.77;;;6.13;;
41943;SDS011;27636;52.610;13.244;2022-11-20T02:03:48;13.13;;;7.50;;
41943;SDS011;27636;52.610;13.244;2022-11-20T02:08:54;18.30;;;7.32;;
41943;SDS011;27636;52.610;13.244;2022-11-20T02:13:57;19.77;;;6.88;;
41943;SDS011;27636;52.610;13.244;2022-11-20T02:19:01;16.65;;;8.30;;
41943;SDS011;27636;52.610;13.244;2022-11-20T02:24:11;14.63;;;6.85;;
41943;SDS011;27636;52.610;13.244;2022-11-20T02:29:17;15.32;;;6.22;;
41943;SDS011;27636;52.610;13.244;2022-11-20T02:34:26;15.90;;;8.80;;
41943;SDS011;27636;52.610;13.244;2022-11-20T02:39:30;20.75;;;7.22;;
41943;SDS011;27636;52.610;13.244;2022-11-20T02:44:34;16.17;;;7.43;;
41943;SDS011;27636;52.610;13.244;2022-11-20T02:49:37;15.60;;;8.18;;
41943;SDS011;27636;52.610;13.244;2022-11-20T02:54:41;19.02;;;7.70;;
41943;SDS011;27636;52.610;13.244;2022-11-20T02:59:44;18.05;;;8.80;;
41943;SDS011;27636;52.610;13.244;2022-11-20T03:04:48;18.90;;;8.02;;
41943;SDS011;27636;52.610;13.244;2022-11-20T03:09:52;20.25;;;7.05;;
41943;SDS011;27636;52.610;13.244;2022-11-20T03:14:55;16.05;;;8.25;;
41943;SDS011;27636;52.610;13.244;2022-11-20T03:19:59;15.90;;;7.00;;
41943;SDS011;27636;52.610;13.244;2022-11-20T03:25:04;18.23;;;7.40;;
41943;SDS011;27636;52.610;13.244;2022-11-20T03:30:09;16.85;;;7.15;;
41943;SDS011;27636;52.610;13.244;2022-11-20T03:35:13;18.90;;;9.00;;
41943;SDS011;27636;52.610;13.244;2022-11-20T03:40:17;15.80;;;7.80;;
41943;SDS011;27636;52.610;13.244;2022-11-20T03:45:20;21.07;;;8.43;;
41943;SDS011;27636;52.610;13.244;2022-11-20T03:50:23;17.15;;;8.65;;
41943;SDS011;27636;52.610;13.244;2022-11-20T03:55:28;18.25;;;8.00;;
41943;SDS011;27636;52.610;13.244;2022-11-20T04:00:31;19.77;;;8.47;;
41943;SDS011;27636;52.610;13.244;2022-11-20T04:05:34;18.95;;;8.27;;
41943;SDS011;27636;52.610;13.244;2022-11-20T04:10:38;21.70;;;7.75;;
41943;SDS011;27636;52.610;13.244;2022-11-20T04:15:42;12.07;;;5.55;;
41943;SDS011;27636;52.610;13.244;2022-11-20T04:20:45;25.13;;;8.50;;
41943;SDS011;27636;52.610;13.244;2022-11-20T04:25:49;18.02;;;8.43;;
41943;SDS011;27636;52.610;13.244;2022-11-20T04:30:52;13.23;;;6.47;;
41943;SDS011;27636;52.610;13.244;2022-11-20T04:35:59;22.35;;;9.32;;
41943;SDS011;27636;52.610;13.244;2022-11-20T04:41:05;14.27;;;8.30;;
41943;SDS011;27636;52.610;13.244;2022-11-20T04:46:09;19.38;;;8.77;;
41943;SDS011;27636;52.610;13.244;2022-11-20T04:51:12;19.50;;;8.25;;
41943;SDS011;27636;52.610;13.244;2022-11-20T04:56:17;16.23;;;7.35;;
41943;SDS011;27636;52.610;13.244;2022-11-20T05:01:22;18.73;;;7.47;;
41943;SDS011;27636;52.610;13.244;2022-11-20T05:06:26;17.90;;;9.23;;
41943;SDS011;27636;52.610;13.244;2022-11-20T05:11:31;24.17;;;9.30;;
41943;SDS011;27636;52.610;13.244;2022-11-20T05:16:34;19.27;;;7.28;;
41943;SDS011;27636;52.610;13.244;2022-11-20T05:21:38;22.88;;;8.68;;
41943;SDS011;27636;52.610;13.244;2022-11-20T05:26:42;19.00;;;8.52;;
41943;SDS011;27636;52.610;13.244;2022-11-20T05:31:46;22.00;;;8.80;;
41943;SDS011;27636;52.610;13.244;2022-11-20T05:36:49;18.38;;;8.88;;
41943;SDS011;27636;52.610;13.244;2022-11-20T05:41:53;20.38;;;8.82;;
41943;SDS011;27636;52.610;13.244;2022-11-20T05:47:15;19.30;;;7.07;;
41943;SDS011;27636;52.610;13.244;2022-11-20T05:52:18;20.92;;;9.00;;
41943;SDS011;27636;52.610;13.244;2022-11-20T05:57:23;17.23;;;9.27;;
41943;SDS011;27636;52.610;13.244;2022-11-20T06:02:26;23.30;;;8.63;;
41943;SDS011;27636;52.610;13.244;2022-11-20T06:07:29;18.55;;;8.93;;
41943;SDS011;27636;52.610;13.244;2022-11-20T06:12:34;13.27;;;7.60;;
41943;SDS011;27636;52.610;13.244;2022-11-20T06:17:37;17.33;;;6.40;;
41943;SDS011;27636;52.610;13.244;2022-11-20T06:22:40;21.23;;;9.13;;
41943;SDS011;27636;52.610;13.244;2022-11-20T06:27:44;24.35;;;9.15;;
41943;SDS011;27636;52.610;13.244;2022-11-20T06:32:48;24.95;;;9.88;;
41943;SDS011;27636;52.610;13.244;2022-11-20T06:37:51;21.73;;;10.40;;
41943;SDS011;27636;52.610;13.244;2022-11-20T06:42:55;17.63;;;7.35;;
41943;SDS011;27636;52.610;13.244;2022-11-20T06:47:58;23.88;;;9.35;;
41943;SDS011;27636;52.610;13.244;2022-11-20T06:53:03;25.85;;;9.05;;
41943;SDS011;27636;52.610;13.244;2022-11-20T06:58:08;22.37;;;10.07;;
41943;SDS011;27636;52.610;13.244;2022-11-20T07:03:12;22.08;;;9.32;;
41943;SDS011;27636;52.610;13.244;2022-11-20T07:08:15;26.00;;;10.25;;
41943;SDS011;27636;52.610;13.244;2022-11-20T07:13:20;22.58;;;9.65;;
41943;SDS011;27636;52.610;13.244;2022-11-20T07:18:23;18.87;;;8.70;;
41943;SDS011;27636;52.610;13.244;2022-11-20T07:23:26;23.05;;;11.07;;
41943;SDS011;27636;52.610;13.244;2022-11-20T07:28:31;19.52;;;8.18;;
41943;SDS011;27636;52.610;13.244;2022-11-20T07:33:34;23.75;;;9.38;;
41943;SDS011;27636;52.610;13.244;2022-11-20T07:38:38;33.58;;;9.93;;
41943;SDS011;27636;52.610;13.244;2022-11-20T07:43:42;18.15;;;9.30;;
41943;SDS011;27636;52.610;13.244;2022-11-20T07:48:45;21.73;;;9.27;;
41943;SDS011;27636;52.610;13.244;2022-11-20T07:53:52;19.52;;;9.55;;
41943;SDS011;27636;52.610;13.244;2022-11-20T07:58:57;19.55;;;10.93;;
41943;SDS011;27636;52.610;13.244;2022-11-20T08:04:00;25.77;;;9.43;;
41943;SDS011;27636;52.610;13.244;2022-11-20T08:09:03;19.20;;;9.32;;
41943;SDS011;27636;52.610;13.244;2022-11-20T08:14:07;22.45;;;9.05;;
41943;SDS011;27636;52.610;13.244;2022-11-20T08:19:17;19.52;;;8.43;;
41943;SDS011;27636;52.610;13.244;2022-11-20T08:24:20;31.67;;;12.30;;
41943;SDS011;27636;52.610;13.244;2022-11-20T08:29:25;25.02;;;11.93;;
41943;SDS011;27636;52.610;13.244;2022-11-20T08:34:28;28.58;;;9.75;;
41943;SDS011;27636;52.610;13.244;2022-11-20T08:39:31;30.50;;;11.88;;
41943;SDS011;27636;52.610;13.244;2022-11-20T08:44:36;24.88;;;10.82;;
41943;SDS011;27636;52.610;13.244;2022-11-20T08:49:39;26.87;;;8.63;;
41943;SDS011;27636;52.610;13.244;2022-11-20T08:54:42;25.00;;;11.88;;
41943;SDS011;27636;52.610;13.244;2022-11-20T08:59:46;35.35;;;12.88;;
41943;SDS011;27636;52.610;13.244;2022-11-20T09:05:07;29.13;;;11.20;;
41943;SDS011;27636;52.610;13.244;2022-11-20T09:10:11;25.40;;;10.02;;
41943;SDS011;27636;52.610;13.244;2022-11-20T09:15:31;27.35;;;10.05;;
41943;SDS011;27636;52.610;13.244;2022-11-20T09:20:35;27.25;;;11.52;;
41943;SDS011;27636;52.610;13.244;2022-11-20T09:25:38;26.75;;;11.55;;
41943;SDS011;27636;52.610;13.244;2022-11-20T09:30:43;32.40;;;11.88;;
41943;SDS011;27636;52.610;13.244;2022-11-20T09:35:46;26.17;;;11.63;;
41943;SDS011;27636;52.610;13.244;2022-11-20T09:40:51;31.60;;;11.57;;
41943;SDS011;27636;52.610;13.244;2022-11-20T09:46:04;21.98;;;9.43;;
41943;SDS011;27636;52.610;13.244;2022-11-20T09:51:13;25.02;;;10.32;;
41943;SDS011;27636;52.610;13.244;2022-11-20T09:56:24;22.27;;;8.57;;
41943;SDS011;27636;52.610;13.244;2022-11-20T10:01:31;28.70;;;9.77;;
41943;SDS011;27636;52.610;13.244;2022-11-20T10:06:37;25.02;;;10.57;;
41943;SDS011;27636;52.610;13.244;2022-11-20T10:11:46;22.63;;;10.95;;
41943;SDS011;27636;52.610;13.244;2022-11-20T10:17:02;19.05;;;10.60;;
41943;SDS011;27636;52.610;13.244;2022-11-20T10:22:12;23.55;;;10.57;;
41943;SDS011;27636;52.610;13.244;2022-11-20T10:27:28;22.10;;;9.65;;
41943;SDS011;27636;52.610;13.244;2022-11-20T10:32:51;22.38;;;9.88;;
41943;SDS011;27636;52.610;13.244;2022-11-20T10:37:57;28.48;;;10.10;;
41943;SDS011;27636;52.610;13.244;2022-11-20T10:43:03;19.55;;;9.45;;
41943;SDS011;27636;52.610;13.244;2022-11-20T10:48:16;21.58;;;8.77;;
41943;SDS011;27636;52.610;13.244;2022-11-20T10:53:28;16.50;;;7.85;;
41943;SDS011;27636;52.610;13.244;2022-11-20T10:58:42;23.40;;;10.88;;
41943;SDS011;27636;52.610;13.244;2022-11-20T11:03:54;15.80;;;6.88;;
41943;SDS011;27636;52.610;13.244;2022-11-20T11:08:58;18.17;;;8.23;;
41943;SDS011;27636;52.610;13.244;2022-11-20T11:14:05;18.98;;;8.52;;
41943;SDS011;27636;52.610;13.244;2022-11-20T11:19:12;13.85;;;6.53;;
41943;SDS011;27636;52.610;13.244;2022-11-20T11:24:19;17.48;;;8.60;;
41943;SDS011;27636;52.610;13.244;2022-11-20T11:29:44;18.17;;;7.05;;
41943;SDS011;27636;52.610;13.244;2022-11-20T11:34:59;18.27;;;7.40;;
41943;SDS011;27636;52.610;13.244;2022-11-20T11:40:03;25.95;;;8.05;;
41943;SDS011;27636;52.610;13.244;2022-11-20T11:45:26;21.88;;;8.68;;
41943;SDS011;27636;52.610;13.244;2022-11-20T11:50:31;23.45;;;8.90;;
41943;SDS011;27636;52.610;13.244;2022-11-20T12:00:45;15.30;;;6.20;;
41943;SDS011;27636;52.610;13.244;2022-11-20T12:05:56;15.80;;;7.82;;
41943;SDS011;27636;52.610;13.244;2022-11-20T12:11:03;18.27;;;6.25;;
41943;SDS011;27636;52.610;13.244;2022-11-20T12:16:10;17.30;;;7.10;;
41943;SDS011;27636;52.610;13.244;2022-11-20T12:21:23;18.38;;;7.95;;
41943;SDS011;27636;52.610;13.244;2022-11-20T12:26:38;14.13;;;5.95;;
41943;SDS011;27636;52.610;13.244;2022-11-20T12:31:54;18.48;;;7.28;;
41943;SDS011;27636;52.610;13.244;2022-11-20T12:37:10;16.75;;;5.85;;
41943;SDS011;27636;52.610;13.244;2022-11-20T12:42:43;23.60;;;7.28;;
41943;SDS011;27636;52.610;13.244;2022-11-20T12:48:28;14.13;;;5.90;;
41943;SDS011;27636;52.610;13.244;2022-11-20T12:53:53;19.52;;;8.52;;
41943;SDS011;27636;52.610;13.244;2022-11-20T12:59:10;16.85;;;6.88;;
41943;SDS011;27636;52.610;13.244;2022-11-20T13:04:34;13.70;;;7.07;;
41943;SDS011;27636;52.610;13.244;2022-11-20T13:09:52;16.17;;;8.35;;
41943;SDS011;27636;52.610;13.244;2022-11-20T13:14:58;18.25;;;7.43;;
41943;SDS011;27636;52.610;13.244;2022-11-20T13:20:12;15.32;;;7.43;;
41943;SDS011;27636;52.610;13.244;2022-11-20T13:25:26;15.77;;;6.25;;
41943;SDS011;27636;52.610;13.244;2022-11-20T13:30:31;17.63;;;7.50;;
41943;SDS011;27636;52.610;13.244;2022-11-20T13:35:35;15.32;;;7.47;;
41943;SDS011;27636;52.610;13.244;2022-11-20T13:40:51;18.38;;;7.07;;
41943;SDS011;27636;52.610;13.244;2022-11-20T13:45:57;12.80;;;7.00;;
41943;SDS011;27636;52.610;13.244;2022-11-20T13:51:04;17.55;;;7.70;;
41943;SDS011;27636;52.610;13.244;2022-11-20T13:56:19;17.85;;;6.65;;
41943;SDS011;27636;52.610;13.244;2022-11-20T14:01:28;11.90;;;4.90;;
41943;SDS011;27636;52.610;13.244;2022-11-20T14:06:39;13.77;;;7.50;;
41943;SDS011;27636;52.610;13.244;2022-11-20T14:11:47;16.35;;;7.30;;
41943;SDS011;27636;52.610;13.244;2022-11-20T14:16:50;15.30;;;6.07;;
41943;SDS011;27636;52.610;13.244;2022-11-20T14:22:06;18.40;;;6.22;;
41943;SDS011;27636;52.610;13.244;2022-11-20T14:27:14;18.77;;;7.95;;
41943;SDS011;27636;52.610;13.244;2022-11-20T14:32:20;11.43;;;6.50;;
41943;SDS011;27636;52.610;13.244;2022-11-20T14:37:30;16.25;;;6.93;;
41943;SDS011;27636;52.610;13.244;2022-11-20T14:42:43;20.35;;;6.80;;
41943;SDS011;27636;52.610;13.244;2022-11-20T14:47:47;17.83;;;7.70;;
41943;SDS011;27636;52.610;13.244;2022-11-20T14:52:52;11.75;;;7.10;;
41943;SDS011;27636;52.610;13.244;2022-11-20T15:03:02;11.48;;;5.85;;
41943;SDS011;27636;52.610;13.244;2022-11-20T15:08:17;18.38;;;7.05;;
41943;SDS011;27636;52.610;13.244;2022-11-20T15:13:26;17.90;;;6.00;;
41943;SDS011;27636;52.610;13.244;2022-11-20T15:18:32;15.85;;;7.22;;
41943;SDS011;27636;52.610;13.244;2022-11-20T15:23:40;21.13;;;6.57;;
41943;SDS011;27636;52.610;13.244;2022-11-20T15:28:46;12.15;;;5.80;;
41943;SDS011;27636;52.610;13.244;2022-11-20T15:33:52;12.65;;;5.93;;
41943;SDS011;27636;52.610;13.244;2022-11-20T15:38:56;19.75;;;5.10;;
41943;SDS011;27636;52.610;13.244;2022-11-20T15:44:00;15.20;;;8.60;;
41943;SDS011;27636;52.610;13.244;2022-11-20T15:49:04;14.70;;;5.53;;
41943;SDS011;27636;52.610;13.244;2022-11-20T15:54:08;12.15;;;4.82;;
41943;SDS011;27636;52.610;13.244;2022-11-20T15:59:15;10.65;;;6.07;;
41943;SDS011;27636;52.610;13.244;2022-11-20T16:04:18;12.82;;;6.47;;
41943;SDS011;27636;52.610;13.244;2022-11-20T16:09:22;14.70;;;7.13;;
41943;SDS011;27636;52.610;13.244;2022-11-20T16:14:27;21.58;;;6.25;;
41943;SDS011;27636;52.610;13.244;2022-11-20T16:19:51;15.88;;;7.82;;
41943;SDS011;27636;52.610;13.244;2022-11-20T16:24:56;18.75;;;6.13;;
41943;SDS011;27636;52.610;13.244;2022-11-20T16:30:01;16.42;;;6.40;;
41943;SDS011;27636;52.610;13.244;2022-11-20T16:35:05;14.82;;;6.63;;
41943;SDS011;27636;52.610;13.244;2022-11-20T16:45:15;16.92;;;6.32;;
41943;SDS011;27636;52.610;13.244;2022-11-20T16:50:26;16.40;;;6.30;;
41943;SDS011;27636;52.610;13.244;2022-11-20T16:55:30;17.48;;;5.72;;
41943;SDS011;27636;52.610;13.244;2022-11-20T17:00:36;16.40;;;7.75;;
41943;SDS011;27636;52.610;13.244;2022-11-20T17:05:39;16.33;;;7.63;;
41943;SDS011;27636;52.610;13.244;2022-11-20T17:10:42;21.25;;;6.75;;
41943;SDS011;27636;52.610;13.244;2022-11-20T17:15:47;15.10;;;5.28;;
41943;SDS011;27636;52.610;13.244;2022-11-20T17:20:50;13.80;;;6.00;;
41943;SDS011;27636;52.610;13.244;2022-11-20T17:25:59;13.40;;;5.28;;
41943;SDS011;27636;52.610;13.244;2022-11-20T17:31:06;12.18;;;5.43;;
41943;SDS011;27636;52.610;13.244;2022-11-20T17:36:11;14.60;;;6.40;;
41943;SDS011;27636;52.610;13.244;2022-11-20T17:41:17;10.00;;;5.47;;
41943;SDS011;27636;52.610;13.244;2022-11-20T17:46:24;16.77;;;7.65;;
41943;SDS011;27636;52.610;13.244;2022-11-20T17:51:30;17.45;;;6.72;;
41943;SDS011;27636;52.610;13.244;2022-11-20T17:56:36;11.45;;;5.43;;
41943;SDS011;27636;52.610;13.244;2022-11-20T18:02:00;15.07;;;6.88;;
41943;SDS011;27636;52.610;13.244;2022-11-20T18:07:05;11.70;;;5.50;;
41943;SDS011;27636;52.610;13.244;2022-11-20T18:12:09;14.52;;;6.78;;
41943;SDS011;27636;52.610;13.244;2022-11-20T18:17:14;14.13;;;4.50;;
41943;SDS011;27636;52.610;13.244;2022-11-20T18:22:19;13.88;;;6.63;;
41943;SDS011;27636;52.610;13.244;2022-11-20T18:27:23;14.15;;;7.03;;
41943;SDS011;27636;52.610;13.244;2022-11-20T18:32:32;13.47;;;5.50;;
41943;SDS011;27636;52.610;13.244;2022-11-20T18:37:37;13.77;;;6.38;;
41943;SDS011;27636;52.610;13.244;2022-11-20T18:42:41;18.90;;;5.82;;
41943;SDS011;27636;52.610;13.244;2022-11-20T18:48:05;15.85;;;6.22;;
41943;SDS011;27636;52.610;13.244;2022-11-20T18:53:08;21.20;;;9.20;;
41943;SDS011;27636;52.610;13.244;2022-11-20T18:58:11;15.20;;;6.25;;
41943;SDS011;27636;52.610;13.244;2022-11-20T19:03:16;20.65;;;7.18;;
41943;SDS011;27636;52.610;13.244;2022-11-20T19:08:19;10.68;;;5.60;;
41943;SDS011;27636;52.610;13.244;2022-11-20T19:13:23;11.10;;;5.95;;
41943;SDS011;27636;52.610;13.244;2022-11-20T19:18:29;24.33;;;7.22;;
41943;SDS011;27636;52.610;13.244;2022-11-20T19:23:32;17.38;;;7.75;;
41943;SDS011;27636;52.610;13.244;2022-11-20T19:28:36;10.93;;;6.40;;
41943;SDS011;27636;52.610;13.244;2022-11-20T19:33:41;12.80;;;6.45;;
41943;SDS011;27636;52.610;13.244;2022-11-20T19:38:45;15.60;;;7.53;;
41943;SDS011;27636;52.610;13.244;2022-11-20T19:43:49;10.70;;;5.57;;
41943;SDS011;27636;52.610;13.244;2022-11-20T19:48:54;10.90;;;5.90;;
41943;SDS011;27636;52.610;13.244;2022-11-20T19:53:58;16.90;;;6.05;;
41943;SDS011;27636;52.610;13.244;2022-11-20T19:59:02;17.52;;;7.20;;
41943;SDS011;27636;52.610;13.244;2022-11-20T20:04:07;17.08;;;7.05;;
41943;SDS011;27636;52.610;13.244;2022-11-20T20:09:10;8.60;;;5.35;;
41943;SDS011;27636;52.610;13.244;2022-11-20T20:14:14;12.77;;;6.70;;
41943;SDS011;27636;52.610;13.244;2022-11-20T20:19:19;20.63;;;9.13;;
41943;SDS011;27636;52.610;13.244;2022-11-20T20:29:26;13.07;;;6.20;;
41943;SDS011;27636;52.610;13.244;2022-11-20T20:34:30;12.32;;;5.18;;
41943;SDS011;27636;52.610;13.244;2022-11-20T20:39:34;17.27;;;6.60;;
41943;SDS011;27636;52.610;13.244;2022-11-20T20:44:37;15.25;;;6.15;;
41943;SDS011;27636;52.610;13.244;2022-11-20T20:50:00;19.10;;;7.13;;
41943;SDS011;27636;52.610;13.244;2022-11-20T20:55:03;12.93;;;6.35;;
41943;SDS011;27636;52.610;13.244;2022-11-20T21:00:07;17.20;;;6.47;;
41943;SDS011;27636;52.610;13.244;2022-11-20T21:05:13;12.00;;;6.03;;
41943;SDS011;27636;52.610;13.244;2022-11-20T21:10:16;10.02;;;5.13;;
41943;SDS011;27636;52.610;13.244;2022-11-20T21:15:25;16.13;;;6.10;;
41943;SDS011;27636;52.610;13.244;2022-11-20T21:20:29;9.15;;;5.60;;
41943;SDS011;27636;52.610;13.244;2022-11-20T21:25:51;12.95;;;4.70;;
41943;SDS011;27636;52.610;13.244;2022-11-20T21:31:01;11.05;;;4.95;;
41943;SDS011;27636;52.610;13.244;2022-11-20T21:36:07;13.80;;;5.57;;
41943;SDS011;27636;52.610;13.244;2022-11-20T21:41:12;14.55;;;6.32;;
41943;SDS011;27636;52.610;13.244;2022-11-20T21:46:16;13.93;;;6.05;;
41943;SDS011;27636;52.610;13.244;2022-11-20T21:51:21;12.18;;;7.18;;
41943;SDS011;27636;52.610;13.244;2022-11-20T21:56:26;11.60;;;6.97;;
41943;SDS011;27636;52.610;13.244;2022-11-20T22:01:29;9.70;;;6.18;;
41943;SDS011;27636;52.610;13.244;2022-11-20T22:06:34;18.27;;;7.85;;
41943;SDS011;27636;52.610;13.244;2022-11-20T22:11:37;14.52;;;7.32;;
41943;SDS011;27636;52.610;13.244;2022-11-20T22:16:40;9.57;;;4.82;;
41943;SDS011;27636;52.610;13.244;2022-11-20T22:21:45;12.73;;;5.15;;
41943;SDS011;27636;52.610;13.244;2022-11-20T22:26:48;12.63;;;6.25;;
41943;SDS011;27636;52.610;13.244;2022-11-20T22:31:52;8.93;;;4.28;;
41943;SDS011;27636;52.610;13.244;2022-11-20T22:36:56;11.80;;;4.60;;
41943;SDS011;27636;52.610;13.244;2022-11-20T22:41:59;10.60;;;4.63;;
41943;SDS011;27636;52.610;13.244;2022-11-20T22:47:03;20.15;;;5.93;;
41943;SDS011;27636;52.610;13.244;2022-11-20T22:52:14;10.98;;;6.88;;
41943;SDS011;27636;52.610;13.244;2022-11-20T22:57:17;10.57;;;4.40;;
41943;SDS011;27636;52.610;13.244;2022-11-20T23:02:20;7.53;;;4.05;;
41943;SDS011;27636;52.610;13.244;2022-11-20T23:07:25;17.75;;;6.78;;
41943;SDS011;27636;52.610;13.244;2022-11-20T23:12:28;14.20;;;6.45;;
41943;SDS011;27636;52.610;13.244;2022-11-20T23:17:31;12.15;;;6.88;;
41943;SDS011;27636;52.610;13.244;2022-11-20T23:22:36;7.97;;;6.18;;
41943;SDS011;27636;52.610;13.244;2022-11-20T23:27:39;11.35;;;4.32;;
41943;SDS011;27636;52.610;13.244;2022-11-20T23:32:42;12.90;;;6.03;;
41943;SDS011;27636;52.610;13.244;2022-11-20T23:37:47;10.60;;;4.53;;
41943;SDS011;27636;52.610;13.244;2022-11-20T23:42:50;9.05;;;4.72;;
41943;SDS011;27636;52.610;13.244;2022-11-20T23:48:12;14.15;;;7.75;;
41943;SDS011;27636;52.610;13.244;2022-11-20T23:53:17;12.20;;;5.55;;
41943;SDS011;27636;52.610;13.244;2022-11-20T23:58:21;10.82;;;4.95;;
